Grider Field
KPBF : now visible

Airfield :











YOU CAN JOIN US ON...

 
LOGIN :

Register | Disclaimer

   EN    FR    IT 

 









Legend :    VFR   Marginal VFR   IFR   Intensive IFR   Very Intensive IFR
Visi :
Ceiling :
>= 8 km
>= 3000ft
5 to 8 km
1000 to 3000 ft
1500m to 5 km
500 to 1000 ft
800 to 1500m
200 to 500 ft
< 800m
< 200 ft
Symbols :   Thunderstorms  Fog  Heavy snow  Heavy precipitations  Wind > 20 kt






- Airport Elevation : 206 ft


KPBF - Grider Field

CURRENT METAR :
  • 150753Z AUTO 06005KT 10SM CLR 07/04 A2997 RMK AO2 SLP147 T00670039

EXPIRED METARs :
  • 150653Z AUTO 00000KT 10SM CLR 07/04 A2997 RMK AO2 SLP148 T00720039
  • 150553Z AUTO 07004KT 10SM CLR 07/04 A2997 RMK AO2 SLP148 T00720039 10100 20072 401330028 51012

TAF KPBF
Valid from the 15 at 06:00 until the 16 at 06:00 UTC


150528Z 1506/1606 04005KT P6SM BKN120 OVC250
FM151200 06006KT P6SM OVC015
FM151500 08008KT 6SM BR OVC007
FM152000 10006KT 4SM -DZ BR OVC004



MET'MAP, your aeronautical weather chart ! - Copyright ORBIFLY December 2007 - Disclaimer

ORBIFLY MET'MAP TEAM :

Programming & Development : Alexandra Zaïnal
Concept & original design : Baudouin d'Aumeries
Assistance for programming : Marc-Olivier Méhu
Technical & hardware support : Manuel Goepfert

Contact : metmap@orbifly.com




SOURCES & CREDITS :

   NOAA       Earth
Advisory